Terminal Aerodrome Forecast
Issued by NWS Upton, NY

Home | Current Version | Previous Version | Text Only | Print | Product List | Glossary On
Versions: 1 2 3 4 5 6 7 8 9 10 11 12 13 14 15 16 17 18 19 20 21 22 23 24
836
FTUS41 KOKX 140525
TAFISP
TAF
KISP 140525Z 1406/1506 30017G26KT P6SM FEW250
     FM141500 33014G22KT P6SM SKC
     FM142000 31010G16KT P6SM SKC
     FM142300 30005KT P6SM SKC
     FM150200 00000KT P6SM SKC=

USA.gov is the U.S. government's official web portal to all federal, state and local government web resources and services.